This is the latest recevied weather packets stored in our database for station/object DF9PM-13. If no packets are shown the sender has not sent any weather packets the latest 10 day(s).
| Time | Temp. | Humidity | Pressure | Rain* | Wind** | Luminosity | Snow |
|---|---|---|---|---|---|---|---|
| 1777799718 | 22.78° C | 26% | 1014.6 hPa | - | - | - | - |
| 1777799417 | 23.89° C | 31% | 1014.5 hPa | - | - | - | - |
| 1777799117 | 23.89° C | 33% | 1014.6 hPa | - | - | - | - |
| 1777798817 | 23.33° C | 36% | 1014.7 hPa | - | - | - | - |
| 1777798517 | 23.33° C | 34% | 1014.7 hPa | - | - | - | - |
| 1777798217 | 22.78° C | 35% | 1014.7 hPa | - | - | - | - |
| 1777797917 | 23.33° C | 35% | 1014.7 hPa | - | - | - | - |
| 1777797617 | 22.78° C | 37% | 1014.8 hPa | - | - | - | - |
| 1777797317 | 21.67° C | 41% | 1014.9 hPa | - | - | - | - |
| 1777797017 | 21.67° C | 45% | 1014.9 hPa | - | - | - | - |
| 1777796717 | 21.11° C | 51% | 1014.9 hPa | - | - | - | - |
| 1777796417 | 21.67° C | 50% | 1014.9 hPa | - | - | - | - |
| 1777796117 | 20.56° C | 56% | 1014.9 hPa | - | - | - | - |
| 1777795817 | 20° C | 57% | 1014.9 hPa | - | - | - | - |
| 1777795517 | 20.56° C | 50% | 1014.9 hPa | - | - | - | - |
| 1777795217 | 20° C | 54% | 1015 hPa | - | - | - | - |
| 1777794916 | 20.56° C | 55% | 1015 hPa | - | - | - | - |
| 1777794616 | 20° C | 62% | 1015 hPa | - | - | - | - |
| 1777794317 | 20.56° C | 63% | 1014.9 hPa | - | - | - | - |
| 1777794016 | 18.33° C | 77% | 1015 hPa | - | - | - | - |
| 1777793716 | 18.33° C | 78% | 1015.1 hPa | - | - | - | - |
| 1777793416 | 17.22° C | 83% | 1015.1 hPa | - | - | - | - |
| 1777793116 | 17.22° C | 87% | 1015.2 hPa | - | - | - | - |
| 1777792816 | 16.67° C | 86% | 1015.1 hPa | - | - | - | - |
| 1777792516 | 17.22° C | 82% | 1015 hPa | - | - | - | - |
* Rain since midnight (hover to see other rain measurements)
** Current wind speed in m/s (hover to see current wind gust speed)